Houn Maru — JG5489 — position and weather

sailwx.info

Track history (hours):
 
Tides and Currents Weather Stations Pressure Air Temp Water Temp Dewpoint Dewpoint Depression Visibility Wind Speed Wind Dir Waves Ship Positions

Houn Maru

Last reported at 2014-Sep-20 01:18 UTC. Time now 2014-Sep-20 02:00 UTC.
Position N 34°34' E 134°50'.

Length 91 m; draft 4.5 m.

Type: Tanker. MMSI: 431101172.

Date/timePositionNaut miles runAvg speedWind from/ knotsBaromVisibWave heightAir tempDewpointWater temp
2014-Sep-20 01:18N 34°34' E 134°50'912.0
2014-Sep-20 00:33N 34°38' E 135°00'1211.9
2014-Sep-19 23:34N 34°34' E 135°14'5 4.1
2014-Sep-19 22:25N 34°32' E 135°19'0 0.0
2014-Sep-19 21:25N 34°32' E 135°19'0 0.0
2014-Sep-19 20:31N 34°32' E 135°19'0 0.0
2014-Sep-19 19:31N 34°32' E 135°19'0 0.0
2014-Sep-19 18:31N 34°32' E 135°19'0 0.0
2014-Sep-19 17:25N 34°32' E 135°19'0 0.0
2014-Sep-19 16:31N 34°32' E 135°19'0 0.0
2014-Sep-19 15:13N 34°32' E 135°19'0 0.0
2014-Sep-19 14:31N 34°32' E 135°19'0 0.0
2014-Sep-19 13:25N 34°32' E 135°19'0 0.0
2014-Sep-19 12:19N 34°32' E 135°19'0 0.0
2014-Sep-19 11:31N 34°32' E 135°19'0 0.0
2014-Sep-19 10:19N 34°32' E 135°19'0 0.0
2014-Sep-19 09:31N 34°32' E 135°19'0 0.0
2014-Sep-19 08:31N 34°32' E 135°19'0 0.1
2014-Sep-19 07:33N 34°32' E 135°19'1010.0
2014-Sep-19 06:33N 34°24' E 135°12'2 0.4
2014-Sep-19 01:33N 34°25' E 135°14'2 1.6
2014-Sep-19 00:24N 34°23' E 135°13'0 0.0
2014-Sep-18 21:18N 34°23' E 135°13'0 0.0
2014-Sep-18 19:12N 34°23' E 135°13'0 0.0
2014-Sep-18 18:30N 34°23' E 135°13'0 0.0
2014-Sep-18 17:30N 34°23' E 135°13'0 0.0
2014-Sep-18 16:30N 34°23' E 135°13'0 0.0
2014-Sep-18 15:30N 34°23' E 135°13'0 0.0
2014-Sep-18 14:30N 34°23' E 135°13'2 2.3
2014-Sep-18 13:33N 34°25' E 135°10'1212.3
2014-Sep-18 12:33N 34°35' E 135°03'5 0.2
2014-Sep-17 06:33N 34°37' E 134°58'1212.4
2014-Sep-17 05:33N 34°29' E 135°09'6 1.1
2014-Sep-17 00:10N 34°25' E 135°14'2 3.6
2014-Sep-16 23:33N 34°23' E 135°13'0 0.0
2014-Sep-16 22:19N 34°23' E 135°13'0 0.0
2014-Sep-16 21:07N 34°23' E 135°13'0 0.0
2014-Sep-16 20:31N 34°23' E 135°13'0 0.0
2014-Sep-16 19:28N 34°23' E 135°13'910.0
2014-Sep-16 18:33N 34°31' E 135°06'9 9.2
2014-Sep-16 17:33N 34°36' E 134°57'4 0.1
2014-Sep-15 01:33N 34°37' E 135°01'1312.4
2014-Sep-15 00:33N 34°34' E 135°16'  
2014-Sep-12 08:04N 34°31' E 135°24'3 6.5
2014-Sep-12 07:33N 34°31' E 135°20'10 9.9
2014-Sep-12 06:33N 34°24' E 135°12'2 0.4
2014-Sep-12 01:33N 34°25' E 135°14'2 1.9
2014-Sep-12 00:31N 34°23' E 135°13'0 0.0
2014-Sep-11 23:28N 34°23' E 135°13'0 0.0
2014-Sep-11 22:28N 34°23' E 135°13'0 0.1
2014-Sep-11 21:16N 34°23' E 135°12'0 0.0
2014-Sep-11 20:28N 34°23' E 135°12'0 0.0
2014-Sep-11 19:22N 34°23' E 135°12'0 0.0
2014-Sep-11 17:28N 34°23' E 135°12'0 0.0
2014-Sep-11 16:22N 34°23' E 135°12'0 0.0
2014-Sep-11 15:28N 34°23' E 135°12'0 0.0
2014-Sep-11 14:22N 34°23' E 135°12'5 6.5
2014-Sep-11 13:33N 34°28' E 135°09'10 9.9
2014-Sep-11 12:33N 34°36' E 135°02'4 0.2
2014-Sep-10 08:33N 34°37' E 134°57'9 9.1
2014-Sep-10 07:33N 34°33' E 135°07'1010.1
2014-Sep-10 06:33N 34°24' E 135°14'1 0.1
2014-Sep-10 01:30N 34°25' E 135°14'  
Track history (hours):
 
Tides and Currents Weather Stations Pressure Air Temp Water Temp Dewpoint Dewpoint Depression Visibility Wind Speed Wind Dir Waves Ship Positions

Houn Maru

Last reported at 2014-Sep-20 01:18 UTC. Time now 2014-Sep-20 02:00 UTC.
Position N 34°34' E 134°50'.

Length 91 m; draft 4.5 m.

Type: Tanker. MMSI: 431101172.

Date/timePositionNaut miles runAvg speedWind from/ knotsBaromVisibWave heightAir tempDewpointWater temp
2014-Sep-20 01:18N 34°34' E 134°50'912.0
2014-Sep-20 00:33N 34°38' E 135°00'1211.9
2014-Sep-19 23:34N 34°34' E 135°14'5 4.1
2014-Sep-19 22:25N 34°32' E 135°19'0 0.0
2014-Sep-19 21:25N 34°32' E 135°19'0 0.0
2014-Sep-19 20:31N 34°32' E 135°19'0 0.0
2014-Sep-19 19:31N 34°32' E 135°19'0 0.0
2014-Sep-19 18:31N 34°32' E 135°19'0 0.0
2014-Sep-19 17:25N 34°32' E 135°19'0 0.0
2014-Sep-19 16:31N 34°32' E 135°19'0 0.0
2014-Sep-19 15:13N 34°32' E 135°19'0 0.0
2014-Sep-19 14:31N 34°32' E 135°19'0 0.0
2014-Sep-19 13:25N 34°32' E 135°19'0 0.0
2014-Sep-19 12:19N 34°32' E 135°19'0 0.0
2014-Sep-19 11:31N 34°32' E 135°19'0 0.0
2014-Sep-19 10:19N 34°32' E 135°19'0 0.0
2014-Sep-19 09:31N 34°32' E 135°19'0 0.0
2014-Sep-19 08:31N 34°32' E 135°19'0 0.1
2014-Sep-19 07:33N 34°32' E 135°19'1010.0
2014-Sep-19 06:33N 34°24' E 135°12'2 0.4
2014-Sep-19 01:33N 34°25' E 135°14'2 1.6
2014-Sep-19 00:24N 34°23' E 135°13'0 0.0
2014-Sep-18 21:18N 34°23' E 135°13'0 0.0
2014-Sep-18 19:12N 34°23' E 135°13'0 0.0
2014-Sep-18 18:30N 34°23' E 135°13'0 0.0
2014-Sep-18 17:30N 34°23' E 135°13'0 0.0
2014-Sep-18 16:30N 34°23' E 135°13'0 0.0
2014-Sep-18 15:30N 34°23' E 135°13'0 0.0
2014-Sep-18 14:30N 34°23' E 135°13'2 2.3
2014-Sep-18 13:33N 34°25' E 135°10'1212.3
2014-Sep-18 12:33N 34°35' E 135°03'5 0.2
2014-Sep-17 06:33N 34°37' E 134°58'1212.4
2014-Sep-17 05:33N 34°29' E 135°09'6 1.1
2014-Sep-17 00:10N 34°25' E 135°14'2 3.6
2014-Sep-16 23:33N 34°23' E 135°13'0 0.0
2014-Sep-16 22:19N 34°23' E 135°13'0 0.0
2014-Sep-16 21:07N 34°23' E 135°13'0 0.0
2014-Sep-16 20:31N 34°23' E 135°13'0 0.0
2014-Sep-16 19:28N 34°23' E 135°13'910.0
2014-Sep-16 18:33N 34°31' E 135°06'9 9.2
2014-Sep-16 17:33N 34°36' E 134°57'4 0.1
2014-Sep-15 01:33N 34°37' E 135°01'1312.4
2014-Sep-15 00:33N 34°34' E 135°16'  
2014-Sep-12 08:04N 34°31' E 135°24'3 6.5
2014-Sep-12 07:33N 34°31' E 135°20'10 9.9
2014-Sep-12 06:33N 34°24' E 135°12'2 0.4
2014-Sep-12 01:33N 34°25' E 135°14'2 1.9
2014-Sep-12 00:31N 34°23' E 135°13'0 0.0
2014-Sep-11 23:28N 34°23' E 135°13'0 0.0
2014-Sep-11 22:28N 34°23' E 135°13'0 0.1
2014-Sep-11 21:16N 34°23' E 135°12'0 0.0
2014-Sep-11 20:28N 34°23' E 135°12'0 0.0
2014-Sep-11 19:22N 34°23' E 135°12'0 0.0
2014-Sep-11 17:28N 34°23' E 135°12'0 0.0
2014-Sep-11 16:22N 34°23' E 135°12'0 0.0
2014-Sep-11 15:28N 34°23' E 135°12'0 0.0
2014-Sep-11 14:22N 34°23' E 135°12'5 6.5
2014-Sep-11 13:33N 34°28' E 135°09'10 9.9
2014-Sep-11 12:33N 34°36' E 135°02'4 0.2
2014-Sep-10 08:33N 34°37' E 134°57'9 9.1
2014-Sep-10 07:33N 34°33' E 135°07'1010.1
2014-Sep-10 06:33N 34°24' E 135°14'1 0.1
2014-Sep-10 01:30N 34°25' E 135°14'  

Dump ship's entire track history